createdAt,value
2023-04-05T00:03:47.980Z,54.39
2023-04-05T00:07:15.014Z,54.57
2023-04-05T00:10:43.087Z,54.73
2023-04-05T00:14:10.612Z,54.84
2023-04-05T00:17:37.173Z,54.88
2023-04-05T00:21:04.170Z,55.01
2023-04-05T00:24:31.234Z,54.84
2023-04-05T00:27:58.140Z,54.96
2023-04-05T00:31:25.634Z,54.92
2023-04-05T00:34:52.668Z,55.15
2023-04-05T00:38:19.410Z,55.09
2023-04-05T00:41:48.597Z,55.10
2023-04-05T00:45:16.693Z,55.06
2023-04-05T00:48:44.743Z,55.13
2023-04-05T00:52:13.007Z,55.34
2023-04-05T00:55:40.092Z,55.41
2023-04-05T00:59:07.353Z,55.59
2023-04-05T01:02:39.788Z,55.63
2023-04-05T01:06:19.969Z,55.82
2023-04-05T01:09:59.571Z,55.75
2023-04-05T01:13:27.911Z,55.80
2023-04-05T01:16:58.505Z,55.77
2023-04-05T01:20:28.611Z,55.82
2023-04-05T01:24:10.123Z,55.94
2023-04-05T01:27:57.591Z,55.85
2023-04-05T01:31:34.210Z,55.86
2023-04-05T01:35:08.002Z,56.00
2023-04-05T01:38:39.693Z,56.05
2023-04-05T01:42:07.182Z,56.07
2023-04-05T01:45:34.677Z,56.17
2023-04-05T01:49:01.340Z,56.30
2023-04-05T01:52:30.952Z,56.28
2023-04-05T01:56:01.245Z,56.23
2023-04-05T01:59:28.395Z,56.32
2023-04-05T02:02:55.593Z,56.25
2023-04-05T02:06:22.778Z,56.44
2023-04-05T02:09:49.307Z,56.41
2023-04-05T02:13:16.341Z,56.55
2023-04-05T02:16:43.460Z,56.70
2023-04-05T02:20:14.845Z,56.61
2023-04-05T02:23:42.113Z,56.72
2023-04-05T02:27:09.059Z,56.72
2023-04-05T02:30:36.396Z,56.86
2023-04-05T02:34:03.257Z,56.95
2023-04-05T02:37:31.994Z,56.86
2023-04-05T02:40:59.002Z,56.97
2023-04-05T02:44:26.559Z,57.10
2023-04-05T02:47:54.203Z,57.22
2023-04-05T02:51:21.567Z,57.38
2023-04-05T02:54:48.853Z,57.34
2023-04-05T02:58:19.177Z,57.42
2023-04-05T03:01:47.685Z,57.47
2023-04-05T03:05:23.072Z,57.56
2023-04-05T03:08:52.319Z,57.49
2023-04-05T03:12:24.292Z,57.61
2023-04-05T03:15:54.697Z,57.84
2023-04-05T03:19:22.882Z,57.85
2023-04-05T03:22:51.391Z,57.91
2023-04-05T03:26:18.048Z,58.03
2023-04-05T03:29:49.398Z,58.18
2023-04-05T03:33:18.236Z,58.34
2023-04-05T03:36:50.275Z,58.09
2023-04-05T03:40:37.235Z,58.15
2023-04-05T03:44:08.226Z,58.08
2023-04-05T03:47:35.203Z,58.06
2023-04-05T03:51:04.219Z,58.04
2023-04-05T03:54:31.201Z,58.07
2023-04-05T03:58:01.266Z,58.16
2023-04-05T04:01:32.057Z,58.04
2023-04-05T04:04:58.879Z,58.20
2023-04-05T04:08:26.666Z,58.37
2023-04-05T04:11:54.106Z,58.26
2023-04-05T04:15:22.220Z,58.44
2023-04-05T04:19:07.935Z,58.42
2023-04-05T04:23:00.984Z,58.58
2023-04-05T04:26:54.858Z,58.69
2023-04-05T04:30:30.309Z,58.70
2023-04-05T04:34:30.814Z,58.66
2023-04-05T04:38:20.903Z,58.74
2023-04-05T04:42:12.279Z,58.59
2023-04-05T04:46:00.503Z,58.80
2023-04-05T04:49:38.949Z,58.79
2023-04-05T04:53:05.848Z,58.70
2023-04-05T04:56:32.970Z,59.02
2023-04-05T05:00:00.471Z,58.86
2023-04-05T05:03:27.235Z,58.94
2023-04-05T05:06:56.407Z,58.87
2023-04-05T05:10:23.892Z,59.07
2023-04-05T05:13:53.442Z,58.95
2023-04-05T05:17:27.042Z,58.94
2023-04-05T05:20:56.419Z,59.05
2023-04-05T05:24:26.708Z,58.99
2023-04-05T05:27:54.101Z,58.99
2023-04-05T05:31:22.604Z,58.81
2023-04-05T05:34:49.006Z,58.55
2023-04-05T05:38:17.692Z,58.48
2023-04-05T05:41:48.192Z,58.65
2023-04-05T05:45:16.053Z,58.50
2023-04-05T05:48:43.162Z,58.43
2023-04-05T05:52:10.354Z,58.40
2023-04-05T05:55:38.301Z,58.37
2023-04-05T05:59:05.458Z,58.25
2023-04-05T06:02:33.234Z,58.28
2023-04-05T06:06:03.444Z,58.11
2023-04-05T06:09:34.146Z,58.14
2023-04-05T06:13:01.755Z,58.21
2023-04-05T06:16:32.546Z,58.37
2023-04-05T06:20:08.570Z,58.35
2023-04-05T06:23:35.526Z,58.33
2023-04-05T06:27:02.792Z,58.39
2023-04-05T06:30:31.730Z,58.23
2023-04-05T06:33:59.449Z,58.31
2023-04-05T06:37:26.728Z,58.20
2023-04-05T06:40:53.475Z,58.11
2023-04-05T06:44:20.564Z,57.89
2023-04-05T06:47:48.347Z,58.00
2023-04-05T06:51:16.849Z,57.81
2023-04-05T06:54:43.462Z,57.99
2023-04-05T06:58:10.089Z,57.84
2023-04-05T07:01:37.400Z,57.89
2023-04-05T07:05:06.260Z,57.61
2023-04-05T07:08:34.401Z,57.50
2023-04-05T07:12:02.146Z,57.24
2023-04-05T07:15:29.955Z,57.09
2023-04-05T07:18:59.011Z,57.00
2023-04-05T07:22:26.077Z,56.94
2023-04-05T07:25:52.478Z,56.66
2023-04-05T07:29:19.186Z,56.57
2023-04-05T07:32:46.131Z,56.64
2023-04-05T07:36:17.696Z,56.31
2023-04-05T07:39:44.572Z,56.36
2023-04-05T07:43:11.763Z,56.24
2023-04-05T07:46:39.758Z,55.95
2023-04-05T07:50:09.936Z,55.84
2023-04-05T07:53:37.018Z,55.56
2023-04-05T07:57:03.884Z,55.28
2023-04-05T08:00:30.763Z,55.04
2023-04-05T08:03:58.556Z,55.21
2023-04-05T08:07:26.441Z,54.84
2023-04-05T08:10:53.591Z,54.83
2023-04-05T08:14:20.659Z,54.90
2023-04-05T08:17:48.154Z,54.46
2023-04-05T08:21:16.625Z,54.37
2023-04-05T08:24:43.442Z,54.26
2023-04-05T08:28:10.442Z,54.50
2023-04-05T08:31:37.435Z,54.16
2023-04-05T08:35:04.064Z,53.92
2023-04-05T08:38:30.860Z,53.88
2023-04-05T08:42:13.099Z,53.92
2023-04-05T08:45:48.617Z,53.89
2023-04-05T08:49:15.592Z,54.19
2023-04-05T08:52:43.490Z,54.09
2023-04-05T08:56:14.690Z,54.17
2023-04-05T08:59:43.499Z,53.78
2023-04-05T09:03:13.723Z,53.36
2023-04-05T09:06:41.061Z,53.23
2023-04-05T09:10:10.539Z,52.87
2023-04-05T09:13:37.063Z,52.76
2023-04-05T09:17:05.552Z,53.00
2023-04-05T09:20:33.098Z,53.23
2023-04-05T09:24:01.320Z,53.03
2023-04-05T09:27:29.855Z,53.09
2023-04-05T09:30:59.080Z,53.42
2023-04-05T09:34:27.661Z,53.02
2023-04-05T09:37:56.248Z,52.94
2023-04-05T09:41:25.961Z,52.65
2023-04-05T09:44:58.479Z,52.15
2023-04-05T09:48:47.054Z,52.38
2023-04-05T09:52:25.666Z,52.33
2023-04-05T09:55:55.619Z,52.35
2023-04-05T09:59:23.248Z,52.50
2023-04-05T10:02:53.989Z,52.09
2023-04-05T10:06:22.279Z,51.81
2023-04-05T10:09:49.682Z,51.64
2023-04-05T10:13:19.445Z,51.61
2023-04-05T10:16:54.821Z,51.49
2023-04-05T10:20:23.260Z,51.41
2023-04-05T10:23:55.005Z,51.09
2023-04-05T10:27:27.832Z,50.93
2023-04-05T10:30:59.834Z,50.76
2023-04-05T10:34:41.676Z,50.87
2023-04-05T10:38:24.995Z,50.71
2023-04-05T10:42:01.975Z,50.67
2023-04-05T10:45:31.706Z,50.78
2023-04-05T10:49:12.381Z,50.80
2023-04-05T10:52:47.625Z,51.01
2023-04-05T10:56:16.994Z,51.15
2023-04-05T10:59:48.158Z,50.74
2023-04-05T11:03:55.935Z,50.29
2023-04-05T11:07:26.115Z,50.04
2023-04-05T11:10:56.544Z,49.56
2023-04-05T11:14:28.573Z,49.73
2023-04-05T11:18:10.714Z,49.52
2023-04-05T11:21:41.269Z,49.26
2023-04-05T11:25:25.527Z,49.09
2023-04-05T11:29:03.261Z,49.26
2023-04-05T11:32:43.356Z,49.59
2023-04-05T11:36:13.429Z,48.93
2023-04-05T11:39:41.806Z,48.89
2023-04-05T11:43:10.551Z,48.70
2023-04-05T11:46:37.341Z,48.97
2023-04-05T11:50:04.106Z,48.47
2023-04-05T11:53:31.052Z,48.72
2023-04-05T11:56:58.440Z,48.20
2023-04-05T12:00:26.654Z,48.46
2023-04-05T12:03:57.969Z,48.10
2023-04-05T12:07:29.736Z,48.10
2023-04-05T12:11:01.692Z,47.95
2023-04-05T12:14:29.033Z,48.22
2023-04-05T12:17:55.718Z,47.98
2023-04-05T12:21:22.702Z,48.09
2023-04-05T12:24:49.581Z,47.55
2023-04-05T12:28:16.474Z,47.45
2023-04-05T12:31:44.079Z,46.76
2023-04-05T12:35:14.224Z,47.00
2023-04-05T12:38:42.036Z,46.91
2023-04-05T12:42:09.184Z,47.08
2023-04-05T12:45:42.414Z,47.19
2023-04-05T12:49:11.791Z,47.23
2023-04-05T12:52:38.501Z,47.43
2023-04-05T12:56:11.805Z,47.43
2023-04-05T12:59:38.888Z,47.64
2023-04-05T13:03:06.023Z,46.70
2023-04-05T13:06:33.030Z,46.59
2023-04-05T13:10:00.607Z,46.41
2023-04-05T13:13:27.261Z,46.43
2023-04-05T13:16:54.073Z,46.20
2023-04-05T13:20:20.634Z,46.03
2023-04-05T13:23:48.259Z,45.68
2023-04-05T13:27:15.599Z,45.66
2023-04-05T13:30:42.428Z,45.67
2023-04-05T13:34:10.186Z,45.43
2023-04-05T13:37:37.047Z,45.73
2023-04-05T13:41:06.615Z,45.74
2023-04-05T13:44:33.546Z,45.62
2023-04-05T13:48:00.445Z,45.32
2023-04-05T13:51:31.549Z,45.16
2023-04-05T13:55:02.916Z,45.28
2023-04-05T13:58:32.428Z,45.15
2023-04-05T14:01:59.487Z,45.36
2023-04-05T14:05:27.686Z,45.22
2023-04-05T14:08:55.473Z,45.20
2023-04-05T14:12:22.293Z,44.98
2023-04-05T14:15:50.754Z,45.07
2023-04-05T14:19:18.787Z,45.11
2023-04-05T14:22:46.772Z,45.17
2023-04-05T14:26:14.120Z,44.99
2023-04-05T14:29:41.072Z,44.89
2023-04-05T14:33:08.225Z,45.11
2023-04-05T14:36:36.974Z,45.19
2023-04-05T14:40:04.294Z,44.71
2023-04-05T14:43:31.383Z,44.85
2023-04-05T14:46:58.319Z,45.08
2023-04-05T14:50:25.239Z,45.15
2023-04-05T14:53:52.916Z,45.22
2023-04-05T14:57:19.564Z,45.09
2023-04-05T15:00:46.617Z,45.26
2023-04-05T15:04:13.619Z,45.27
2023-04-05T15:07:40.216Z,45.29
2023-04-05T15:11:08.277Z,45.38
2023-04-05T15:14:34.785Z,45.34
2023-04-05T15:18:02.425Z,45.04
2023-04-05T15:21:29.361Z,45.30
2023-04-05T15:24:56.722Z,45.31
2023-04-05T15:28:24.331Z,44.93
2023-04-05T15:31:52.044Z,45.36
2023-04-05T15:35:19.155Z,45.32
2023-04-05T15:38:45.829Z,45.35
2023-04-05T15:42:12.388Z,45.56
2023-04-05T15:45:39.237Z,45.49
2023-04-05T15:49:07.168Z,45.52
2023-04-05T15:52:34.525Z,45.53
2023-04-05T15:56:01.369Z,45.56
2023-04-05T15:59:28.515Z,45.77
2023-04-05T16:03:00.791Z,45.60
2023-04-05T16:06:30.062Z,45.56
2023-04-05T16:09:57.148Z,45.70
2023-04-05T16:13:25.072Z,45.76
2023-04-05T16:16:54.230Z,45.61
2023-04-05T16:20:22.290Z,45.79
2023-04-05T16:23:48.732Z,45.93
2023-04-05T16:27:16.097Z,45.90
2023-04-05T16:30:51.338Z,45.87
2023-04-05T16:34:18.518Z,45.99
2023-04-05T16:37:45.041Z,46.10
2023-04-05T16:41:12.065Z,46.08
2023-04-05T16:44:38.857Z,45.96
2023-04-05T16:48:09.240Z,46.16
2023-04-05T16:51:38.487Z,46.35
2023-04-05T16:55:07.249Z,46.24
2023-04-05T16:58:34.660Z,46.50
2023-04-05T17:02:02.413Z,46.59
2023-04-05T17:05:29.590Z,46.66
2023-04-05T17:08:56.374Z,46.62
2023-04-05T17:12:23.088Z,46.82
2023-04-05T17:15:49.942Z,46.94
2023-04-05T17:19:17.154Z,46.52
2023-04-05T17:22:44.142Z,47.21
2023-04-05T17:26:10.796Z,47.05
2023-04-05T17:29:37.889Z,47.16
2023-04-05T17:33:04.942Z,47.16
2023-04-05T17:36:32.442Z,47.16
2023-04-05T17:40:00.017Z,47.40
2023-04-05T17:43:28.415Z,47.24
2023-04-05T17:47:05.938Z,47.32
2023-04-05T17:50:37.229Z,47.59
2023-04-05T17:54:04.988Z,47.50
2023-04-05T17:57:34.362Z,47.87
2023-04-05T18:01:02.005Z,47.94
2023-04-05T18:04:29.505Z,47.81
2023-04-05T18:07:56.480Z,48.13
2023-04-05T18:11:23.039Z,48.28
2023-04-05T18:14:52.229Z,48.34
2023-04-05T18:18:19.735Z,48.33
2023-04-05T18:21:47.393Z,48.27
2023-04-05T18:25:14.812Z,48.45
2023-04-05T18:28:42.703Z,48.69
2023-04-05T18:32:14.948Z,48.89
2023-04-05T18:35:43.632Z,48.82
2023-04-05T18:39:10.704Z,48.91
2023-04-05T18:42:37.705Z,49.09
2023-04-05T18:46:04.980Z,48.89
2023-04-05T18:49:34.469Z,49.21
2023-04-05T18:53:02.052Z,49.17
2023-04-05T18:56:30.116Z,49.54
2023-04-05T18:59:56.940Z,49.45
2023-04-05T19:03:24.162Z,49.90
2023-04-05T19:06:51.397Z,49.75
2023-04-05T19:10:18.227Z,49.82
2023-04-05T19:13:49.046Z,49.95
2023-04-05T19:17:16.101Z,50.26
2023-04-05T19:20:43.397Z,50.26
2023-04-05T19:24:13.333Z,49.93
2023-04-05T19:27:42.823Z,50.17
2023-04-05T19:31:10.853Z,50.39
2023-04-05T19:34:40.386Z,50.46
2023-04-05T19:38:08.016Z,50.46
2023-04-05T19:41:36.322Z,50.36
2023-04-05T19:45:03.116Z,50.61
2023-04-05T19:48:41.304Z,50.49
2023-04-05T19:52:10.580Z,50.64
2023-04-05T19:55:40.099Z,51.11
2023-04-05T19:59:27.383Z,51.14
2023-04-05T20:02:57.106Z,51.10
2023-04-05T20:06:25.369Z,51.37
2023-04-05T20:09:52.644Z,51.42
2023-04-05T20:13:20.155Z,51.51
2023-04-05T20:16:49.890Z,51.37
2023-04-05T20:20:18.438Z,51.29
2023-04-05T20:23:46.956Z,51.68
2023-04-05T20:27:15.859Z,51.74
2023-04-05T20:30:43.165Z,51.55
2023-04-05T20:34:13.169Z,51.64
2023-04-05T20:37:39.782Z,51.84
2023-04-05T20:41:07.374Z,51.52
2023-04-05T20:44:35.201Z,51.67
2023-04-05T20:48:02.610Z,51.57
2023-04-05T20:51:29.840Z,51.51
2023-04-05T20:54:58.118Z,51.60
2023-04-05T20:58:25.312Z,51.55
2023-04-05T21:01:52.947Z,51.76
2023-04-05T21:05:20.235Z,51.63
2023-04-05T21:08:47.155Z,51.76
2023-04-05T21:12:16.596Z,51.88
2023-04-05T21:15:45.998Z,51.73
2023-04-05T21:19:12.791Z,51.90
2023-04-05T21:22:39.503Z,52.04
2023-04-05T21:26:07.602Z,51.82
2023-04-05T21:29:35.119Z,52.00
2023-04-05T21:33:01.993Z,52.06
2023-04-05T21:36:29.449Z,52.18
2023-04-05T21:39:56.505Z,52.17
2023-04-05T21:43:30.628Z,52.26
2023-04-05T21:46:57.718Z,52.26
2023-04-05T21:50:25.966Z,52.24
2023-04-05T21:53:53.208Z,52.09
2023-04-05T21:57:20.075Z,51.90
2023-04-05T22:00:47.237Z,51.82
2023-04-05T22:04:20.285Z,51.84
2023-04-05T22:07:48.614Z,51.85
2023-04-05T22:11:15.689Z,51.99
2023-04-05T22:14:42.532Z,52.09
2023-04-05T22:18:10.219Z,52.11
2023-04-05T22:21:37.219Z,52.17
2023-04-05T22:25:04.114Z,52.41
2023-04-05T22:28:33.017Z,52.38
2023-04-05T22:32:02.912Z,52.35
2023-04-05T22:35:31.974Z,52.42
2023-04-05T22:38:59.244Z,52.53
2023-04-05T22:42:26.586Z,52.47
2023-04-05T22:45:56.382Z,52.45
2023-04-05T22:49:23.333Z,52.46
2023-04-05T22:52:50.376Z,52.63
2023-04-05T22:56:21.802Z,52.66
2023-04-05T22:59:56.590Z,52.76
2023-04-05T23:03:23.519Z,53.00
2023-04-05T23:06:50.760Z,53.10
2023-04-05T23:10:18.197Z,52.93
2023-04-05T23:13:46.535Z,53.15
2023-04-05T23:17:15.621Z,53.29
2023-04-05T23:20:43.054Z,53.36
2023-04-05T23:24:11.257Z,53.33
2023-04-05T23:27:38.954Z,53.52
2023-04-05T23:31:05.908Z,53.58
2023-04-05T23:34:32.647Z,53.76
2023-04-05T23:37:59.625Z,53.83
2023-04-05T23:41:29.258Z,53.93
2023-04-05T23:44:56.534Z,54.07
2023-04-05T23:48:25.550Z,54.13
2023-04-05T23:51:52.966Z,54.31
2023-04-05T23:55:22.171Z,54.25
2023-04-05T23:58:49.508Z,54.29
